Terminal Aerodrome Forecast
Issued by NWS

Home | Current Version | Previous Version | Text Only | Print | Product List | Glossary On
Versions: 1 2 3 4 5 6 7 8 9 10 11 12 13
469
FTUS44 KEPZ 081720
TAFLRU
TAF
KLRU 081720Z 0818/0918 11005KT P6SM FEW250
     FM090600 34004KT P6SM SKC=

USA.gov is the U.S. government's official web portal to all federal, state and local government web resources and services.